Time;durP1;ratioP1;P1;durP2;ratioP2;P2;SDS_P1;SDS_P2;PMS_P1;PMS_P2;Temp;Humidity;BMP_temperature;BMP_pressure;BME280_temperature;BME280_humidity;BME280_pressure;Samples;Min_cycle;Max_cycle;Signal;HPM_P1;HPM_P2
2023/06/04 00:00:03;;;;;;;6.43;4.40;;;;;;;-143.21;89.29;72014.69;5071373;28;20316;-80
2023/06/04 00:02:30;;;;;;;6.07;4.50;;;;;;;-143.21;89.48;72012.69;5069235;28;20631;-80
2023/06/04 00:04:57;;;;;;;4.77;4.27;;;;;;;-143.21;89.72;72028.56;5071371;28;20205;-80
2023/06/04 00:07:24;;;;;;;5.67;4.40;;;;;;;-143.21;89.34;72024.59;5071483;28;20229;-80
2023/06/04 00:09:51;;;;;;;5.93;4.50;;;;;;;-143.21;89.64;72018.63;5068662;28;20193;-80
2023/06/04 00:12:17;;;;;;;5.07;4.13;;;;;;;-143.21;89.29;72020.63;5071327;28;20224;-82
2023/06/04 00:14:44;;;;;;;7.27;4.50;;;;;;;-143.21;88.17;72022.59;5072111;28;20726;-81
2023/06/04 00:17:13;;;;;;;6.77;4.67;;;;;;;-143.21;88.74;72022.59;5071504;28;20215;-81
2023/06/04 00:19:40;;;;;;;5.33;4.17;;;;;;;-143.21;89.37;72022.59;5071182;28;20209;-81
2023/06/04 00:22:07;;;;;;;6.10;4.43;;;;;;;-143.21;89.70;72032.53;5070500;28;20198;-81
2023/06/04 00:24:35;;;;;;;5.47;4.13;;;;;;;-143.21;89.21;72030.53;5071163;28;20205;-80
2023/06/04 00:27:02;;;;;;;4.87;4.00;;;;;;;-143.21;88.83;72028.56;5071263;28;20204;-81
2023/06/04 00:29:28;;;;;;;6.90;4.43;;;;;;;-143.21;88.54;72028.56;5070717;28;20668;-83
2023/06/04 00:31:55;;;;;;;5.53;4.33;;;;;;;-143.21;89.19;72026.56;5070655;28;20327;-82
2023/06/04 00:34:24;;;;;;;4.30;3.90;;;;;;;-143.21;89.49;72014.69;5071590;28;20208;-82
2023/06/04 00:36:52;;;;;;;4.47;4.07;;;;;;;-143.21;88.85;72016.66;5071231;28;20196;-83
2023/06/04 00:39:20;;;;;;;5.33;4.03;;;;;;;-143.21;88.11;72010.72;5072014;28;20706;-81
2023/06/04 00:41:47;;;;;;;7.00;4.20;;;;;;;-143.21;88.07;72006.75;5071483;28;20193;-81
2023/06/04 00:44:14;;;;;;;4.40;4.00;;;;;;;-143.21;88.47;72006.75;5071433;28;20193;-82
2023/06/04 00:46:41;;;;;;;4.60;4.10;;;;;;;-143.21;88.59;72008.72;5072416;28;20284;-82
2023/06/04 00:49:07;;;;;;;4.57;3.83;;;;;;;-143.21;88.32;72010.72;5072443;28;20205;-82
2023/06/04 00:51:36;;;;;;;6.07;3.80;;;;;;;-143.21;88.14;72012.69;5068538;28;21031;-77
2023/06/04 00:54:08;;;;;;;5.22;3.80;;;;;;;-143.21;87.58;72006.75;5070745;28;20270;-77
2023/06/04 00:56:35;;;;;;;5.73;4.10;;;;;;;-143.21;87.68;72004.75;5069818;28;20297;-77
2023/06/04 00:59:02;;;;;;;6.83;4.17;;;;;;;-143.21;87.99;72008.72;5070313;28;20201;-77
2023/06/04 01:01:42;;;;;;;6.60;4.10;;;;;;;-143.21;88.63;72010.72;5069700;28;20194;-77
2023/06/04 01:04:13;;;;;;;4.23;3.80;;;;;;;-143.21;88.46;72002.78;5069982;28;20209;-82
2023/06/04 01:06:45;;;;;;;5.40;3.80;;;;;;;-143.21;88.63;71998.81;5071706;28;20661;-81
2023/06/04 01:09:12;;;;;;;4.77;3.80;;;;;;;-143.21;88.74;72008.72;5066435;28;20197;-82
2023/06/04 01:11:40;;;;;;;5.45;3.83;;;;;;;-143.21;88.67;72006.75;5072049;28;20221;-82
2023/06/04 01:14:09;;;;;;;4.35;3.95;;;;;;;-143.21;88.53;72008.72;5071617;28;20221;-81
2023/06/04 01:16:49;;;;;;;4.93;3.53;;;;;;;-143.21;88.15;72010.72;5071757;28;21820;-82
2023/06/04 01:19:49;;;;;;;5.55;3.72;;;;;;;-143.21;87.96;72004.75;5068616;28;20197;-82
2023/06/04 01:22:30;;;;;;;6.17;3.90;;;;;;;-143.21;87.80;72004.75;5068736;28;20279;-82
2023/06/04 01:25:03;;;;;;;5.97;4.43;;;;;;;-143.21;88.00;71998.81;5069730;28;20567;-80
2023/06/04 01:27:32;;;;;;;5.83;3.97;;;;;;;-143.21;88.24;72006.75;5070470;28;20197;-80
2023/06/04 01:30:00;;;;;;;4.27;3.70;;;;;;;-143.21;88.46;72000.78;5070897;28;20725;-82
2023/06/04 01:32:28;;;;;;;4.07;3.60;;;;;;;-143.21;88.45;72000.78;5071291;28;20572;-83
2023/06/04 01:34:55;;;;;;;4.80;3.57;;;;;;;-143.21;88.38;72008.72;5071553;28;20267;-81
2023/06/04 01:37:23;;;;;;;4.47;3.30;;;;;;;-143.21;88.46;72010.72;5070039;28;20252;-78
2023/06/04 01:39:50;;;;;;;4.47;3.67;;;;;;;-143.21;88.27;72018.63;5069715;28;20192;-77
2023/06/04 01:42:17;;;;;;;11.03;3.73;;;;;;;-143.21;88.24;72026.56;5069570;28;20213;-78
2023/06/04 01:44:44;;;;;;;3.93;3.43;;;;;;;-143.21;87.88;72018.63;5069502;28;20194;-78
2023/06/04 01:47:10;;;;;;;3.67;2.97;;;;;;;-143.21;87.82;72022.59;5070116;28;20201;-82
2023/06/04 01:49:37;;;;;;;4.13;3.57;;;;;;;-143.21;87.25;72020.63;5068111;28;20586;-82
2023/06/04 01:52:08;;;;;;;6.60;3.80;;;;;;;-143.21;87.05;72016.66;5069495;28;20682;-82
2023/06/04 01:54:37;;;;;;;6.33;3.30;;;;;;;-143.21;87.48;72028.56;5070327;28;20201;-82
2023/06/04 01:57:05;;;;;;;4.33;3.77;;;;;;;-143.21;87.70;72030.53;5070497;28;20197;-82
2023/06/04 01:59:33;;;;;;;4.53;3.23;;;;;;;-143.21;88.00;72030.53;5067951;28;20272;-82
2023/06/04 02:02:01;;;;;;;4.57;3.77;;;;;;;-143.21;88.26;72038.47;5070434;28;20204;-82
2023/06/04 02:04:30;;;;;;;6.13;3.60;;;;;;;-143.21;88.41;72044.41;5070536;28;20209;-82
2023/06/04 02:06:59;;;;;;;6.73;3.87;;;;;;;-143.21;88.50;72042.44;5070488;28;20238;-83
2023/06/04 02:09:26;;;;;;;3.93;3.37;;;;;;;-143.21;88.29;72034.50;5070545;28;20563;-83
2023/06/04 02:11:54;;;;;;;9.33;3.77;;;;;;;-143.21;88.14;72032.53;5071186;28;20228;-83
2023/06/04 02:14:21;;;;;;;4.63;3.60;;;;;;;-143.21;87.82;72042.44;5069118;28;20208;-82
2023/06/04 02:16:49;;;;;;;5.70;3.63;;;;;;;-143.21;87.36;72046.41;5071042;28;20674;-82
2023/06/04 02:19:18;;;;;;;5.97;3.80;;;;;;;-143.21;87.77;72046.41;5071115;28;20209;-83
2023/06/04 02:21:45;;;;;;;3.70;3.30;;;;;;;-143.21;88.14;72052.34;5067585;28;20694;-82
2023/06/04 02:24:12;;;;;;;3.40;3.10;;;;;;;-143.21;88.31;72066.22;5071027;28;20194;-83
2023/06/04 02:26:39;;;;;;;5.13;3.60;;;;;;;-143.21;88.08;72070.19;5070315;28;20213;-84
2023/06/04 02:29:07;;;;;;;9.67;3.37;;;;;;;-143.21;88.03;72066.22;5070612;28;20981;-83
2023/06/04 02:31:34;;;;;;;4.93;3.23;;;;;;;-143.21;88.11;72072.19;5070351;28;20213;-83
2023/06/04 02:34:01;;;;;;;4.07;3.67;;;;;;;-143.21;88.40;72078.13;5070306;28;20197;-83
2023/06/04 02:36:27;;;;;;;5.13;3.43;;;;;;;-143.21;88.48;72080.13;5070653;28;20201;-83
2023/06/04 02:38:55;;;;;;;5.07;3.70;;;;;;;-143.21;88.25;72076.16;5070366;28;20204;-83
2023/06/04 02:41:22;;;;;;;3.80;3.03;;;;;;;-143.21;88.72;72078.13;5070275;28;20205;-84
2023/06/04 02:43:49;;;;;;;4.07;3.30;;;;;;;-143.21;89.00;72076.16;5070022;28;20204;-84
2023/06/04 02:46:17;;;;;;;4.70;3.83;;;;;;;-143.21;89.27;72078.13;5068691;28;20201;-79
2023/06/04 02:48:44;;;;;;;3.57;3.27;;;;;;;-143.21;88.96;72078.13;5068822;28;20198;-77
2023/06/04 02:51:11;;;;;;;4.40;3.70;;;;;;;-143.21;89.02;72078.13;5068578;28;20639;-77
2023/06/04 02:53:38;;;;;;;6.47;3.93;;;;;;;-143.21;88.53;72074.16;5068151;28;20218;-78
2023/06/04 02:56:06;;;;;;;4.73;3.23;;;;;;;-143.21;88.54;72076.16;5068093;28;20243;-77
2023/06/04 02:58:39;;;;;;;6.20;3.60;;;;;;;-143.21;88.69;72082.09;5066408;28;20305;-77
2023/06/04 03:01:06;;;;;;;4.37;3.43;;;;;;;-143.21;88.85;72080.13;5068281;28;20233;-77
2023/06/04 03:03:38;;;;;;;3.47;3.17;;;;;;;-143.21;88.93;72080.13;5066800;28;20201;-77
2023/06/04 03:06:06;;;;;;;4.93;3.73;;;;;;;-143.21;89.31;72082.09;5067192;28;20233;-77
2023/06/04 03:08:32;;;;;;;6.83;5.63;;;;;;;-143.21;89.42;72095.97;5066285;28;20221;-77
2023/06/04 03:10:59;;;;;;;5.50;4.10;;;;;;;-143.21;89.53;72094.00;5066721;28;20186;-77
2023/06/04 03:13:26;;;;;;;5.40;3.77;;;;;;;-143.21;89.11;72084.06;5067909;28;20221;-78
2023/06/04 03:15:55;;;;;;;4.80;3.50;;;;;;;-143.21;89.53;72088.03;5067677;28;20206;-77
2023/06/04 03:18:22;;;;;;;4.27;3.33;;;;;;;-143.21;89.55;72090.03;5067472;28;20789;-78
2023/06/04 03:20:50;;;;;;;4.13;3.73;;;;;;;-143.21;89.87;72084.06;5068802;28;20189;-77
2023/06/04 03:23:17;;;;;;;4.40;3.77;;;;;;;-143.21;89.48;72078.13;5068662;28;20664;-77
2023/06/04 03:25:44;;;;;;;7.40;3.73;;;;;;;-143.21;89.49;72078.13;5070136;28;20197;-77
2023/06/04 03:28:11;;;;;;;5.13;4.10;;;;;;;-143.21;89.63;72084.06;5072388;28;20193;-78
2023/06/04 03:30:38;;;;;;;4.80;3.40;;;;;;;-143.21;89.37;72086.06;5072162;28;20247;-78
2023/06/04 03:33:05;;;;;;;6.97;3.70;;;;;;;-143.21;89.27;72088.03;5071299;28;20217;-78
2023/06/04 03:35:32;;;;;;;5.87;3.80;;;;;;;-143.21;89.44;72092.00;5069995;28;20200;-78
2023/06/04 03:38:01;;;;;;;4.40;3.50;;;;;;;-143.21;89.32;72090.03;5071629;28;20194;-78
2023/06/04 03:40:28;;;;;;;4.07;3.67;;;;;;;-143.21;89.15;72086.06;5071261;28;20205;-78
2023/06/04 03:42:54;;;;;;;4.10;3.70;;;;;;;-143.21;89.69;72094.00;5070199;28;20197;-78
2023/06/04 03:45:21;;;;;;;5.87;3.93;;;;;;;-143.21;89.97;72099.94;5072450;28;20231;-78
2023/06/04 03:47:48;;;;;;;6.80;3.93;;;;;;;-143.21;89.86;72092.00;5072006;28;20198;-78
2023/06/04 03:50:15;;;;;;;6.67;4.33;;;;;;;-143.21;89.95;72094.00;5069715;28;20193;-78
2023/06/04 03:52:42;;;;;;;5.87;3.90;;;;;;;-143.21;90.02;72088.03;5070681;28;20687;-78
2023/06/04 03:55:10;;;;;;;5.30;4.00;;;;;;;-143.21;89.63;72086.06;5071523;28;20213;-82
2023/06/04 03:57:38;;;;;;;5.13;4.10;;;;;;;-143.21;89.56;72088.03;5071540;28;20198;-83
2023/06/04 04:00:06;;;;;;;4.70;4.20;;;;;;;-143.21;89.96;72080.13;5073208;28;20639;-83
2023/06/04 04:02:33;;;;;;;6.23;4.30;;;;;;;-143.21;90.22;72082.09;5071618;28;20209;-78
2023/06/04 04:05:01;;;;;;;7.30;4.70;;;;;;;-143.21;90.37;72080.13;5071635;28;20586;-78
2023/06/04 04:07:27;;;;;;;8.50;4.30;;;;;;;-143.21;90.34;72094.00;5070419;28;20279;-78
2023/06/04 04:09:54;;;;;;;6.03;4.40;;;;;;;-143.21;90.05;72086.06;5070600;28;20615;-78
2023/06/04 04:12:22;;;;;;;4.77;4.23;;;;;;;-143.21;90.39;72090.03;5070008;28;20227;-78
2023/06/04 04:14:49;;;;;;;6.53;4.90;;;;;;;-143.21;90.02;72086.06;5070698;28;20193;-78
2023/06/04 04:17:20;;;;;;;6.03;4.60;;;;;;;-143.21;89.92;72090.03;5071170;28;20295;-78
2023/06/04 04:19:47;;;;;;;6.47;4.80;;;;;;;-143.21;90.32;72092.00;5069665;28;20193;-76
2023/06/04 04:22:17;;;;;;;7.77;4.93;;;;;;;-143.21;90.63;72090.03;5071288;28;20197;-76
2023/06/04 04:24:44;;;;;;;6.73;5.10;;;;;;;-143.21;90.61;72090.03;5070699;28;20201;-77
2023/06/04 04:27:15;;;;;;;6.57;4.50;;;;;;;-143.21;89.87;72084.06;5070069;28;20217;-77
2023/06/04 04:29:47;;;;;;;6.03;5.27;;;;;;;-143.21;90.45;72094.00;5069080;28;20193;-77
2023/06/04 04:32:16;;;;;;;7.70;5.10;;;;;;;-143.21;90.23;72094.00;5069736;28;20625;-78
2023/06/04 04:34:55;;;;;;;7.90;5.07;;;;;;;-143.21;90.21;72097.97;5070544;28;20201;-77
2023/06/04 04:37:22;;;;;;;9.53;5.10;;;;;;;-143.21;90.45;72095.97;5067636;28;20330;-76
2023/06/04 04:39:51;;;;;;;6.57;5.07;;;;;;;-143.21;90.72;72095.97;5070376;28;20263;-79
2023/06/04 04:42:22;;;;;;;6.07;5.10;;;;;;;-143.21;90.67;72094.00;5069977;28;20205;-79
2023/06/04 04:44:50;;;;;;;8.37;5.43;;;;;;;-143.21;90.85;72088.03;5070113;28;20209;-79
2023/06/04 04:47:17;;;;;;;9.27;5.40;;;;;;;-143.21;90.88;72086.06;5069759;28;20208;-82
2023/06/04 04:49:44;;;;;;;10.50;5.43;;;;;;;-143.21;91.10;72082.09;5071716;28;20197;-82
2023/06/04 04:52:11;;;;;;;8.85;5.20;;;;;;;-143.21;90.66;72076.16;5071653;28;20209;-82
2023/06/04 04:54:37;;;;;;;6.43;5.40;;;;;;;-143.21;90.10;72074.16;5071278;28;20201;-83
2023/06/04 04:57:07;;;;;;;9.57;5.70;;;;;;;-143.21;89.87;72068.22;5070529;28;20206;-78
2023/06/04 04:59:34;;;;;;;8.73;5.53;;;;;;;-143.21;89.81;72070.19;5069356;28;20202;-78
2023/06/04 05:02:02;;;;;;;7.67;5.70;;;;;;;-143.21;89.92;72070.19;5070228;28;20196;-77
2023/06/04 05:04:29;;;;;;;10.27;5.70;;;;;;;-143.21;90.10;72070.19;5070148;28;20193;-78
2023/06/04 05:06:56;;;;;;;11.90;6.90;;;;;;;-143.21;89.84;72062.25;5069822;28;20225;-77
2023/06/04 05:09:22;;;;;;;9.33;5.87;;;;;;;-143.21;89.66;72058.31;5071990;28;20201;-82
2023/06/04 05:11:49;;;;;;;7.97;5.50;;;;;;;-143.21;88.73;72058.31;5072039;28;20208;-82
2023/06/04 05:14:17;;;;;;;8.30;5.90;;;;;;;-143.21;88.27;72048.38;5072031;28;20294;-83
2023/06/04 05:16:44;;;;;;;10.93;6.27;;;;;;;-143.21;87.70;72038.47;5072284;28;20233;-83
2023/06/04 05:19:12;;;;;;;8.65;5.55;;;;;;;-143.21;87.44;72044.41;5072016;28;20189;-79
2023/06/04 05:21:39;;;;;;;10.90;5.82;;;;;;;-143.21;87.17;72036.50;5070834;28;20213;-79
2023/06/04 05:24:06;;;;;;;8.23;6.03;;;;;;;-143.21;86.75;72036.50;5070252;28;20201;-80
2023/06/04 05:26:33;;;;;;;8.23;5.63;;;;;;;-143.21;86.51;72034.50;5069745;28;20205;-77
2023/06/04 05:28:59;;;;;;;8.27;6.50;;;;;;;-143.21;86.07;72022.59;5069862;28;20198;-77
2023/06/04 05:31:27;;;;;;;11.23;6.28;;;;;;;-143.21;85.79;72026.56;5069490;28;20213;-77
2023/06/04 05:33:54;;;;;;;7.75;5.82;;;;;;;-143.21;84.91;72010.72;5067465;28;20246;-78
2023/06/04 05:36:22;;;;;;;11.57;6.30;;;;;;;-143.21;85.17;72010.72;5069320;28;20193;-77
2023/06/04 05:38:57;;;;;;;12.07;6.38;;;;;;;-143.21;84.95;71996.81;5069497;28;20209;-77
2023/06/04 05:41:25;;;;;;;8.83;6.27;;;;;;;-143.21;84.78;71996.81;5068964;28;20203;-77
2023/06/04 05:43:52;;;;;;;9.52;6.53;;;;;;;-143.21;84.28;71998.81;5068338;28;20190;-77
2023/06/04 05:46:19;;;;;;;8.05;6.55;;;;;;;-143.21;83.45;71990.88;5068143;28;20197;-78
2023/06/04 05:48:46;;;;;;;8.50;6.13;;;;;;;-143.21;83.71;72000.78;5068118;28;20193;-76
2023/06/04 05:51:14;;;;;;;10.82;5.72;;;;;;;-143.21;83.63;71996.81;5067203;28;20680;-77
2023/06/04 05:53:43;;;;;;;10.23;5.75;;;;;;;-143.21;83.46;71998.81;5069055;28;20225;-76
2023/06/04 05:56:10;;;;;;;9.90;6.43;;;;;;;-143.21;82.73;71996.81;5068275;28;20340;-77
2023/06/04 05:58:37;;;;;;;9.52;6.40;;;;;;;-143.21;82.72;71994.84;5068984;28;20201;-76
2023/06/04 06:01:04;;;;;;;13.40;6.78;;;;;;;-143.21;81.77;72004.75;5068672;28;20323;-78
2023/06/04 06:03:31;;;;;;;9.32;6.22;;;;;;;-143.21;81.94;72006.75;5068136;28;20197;-78
2023/06/04 06:05:59;;;;;;;11.05;6.60;;;;;;;-143.21;82.06;71990.88;5067748;28;20225;-77
2023/06/04 06:08:27;;;;;;;7.82;5.68;;;;;;;-143.21;81.71;71992.88;5067930;28;20233;-77
2023/06/04 06:10:55;;;;;;;11.05;5.90;;;;;;;-143.21;81.71;71986.91;5066213;28;20726;-77
2023/06/04 06:13:22;;;;;;;9.90;6.38;;;;;;;-143.21;81.10;71978.97;5068379;28;20232;-78
2023/06/04 06:15:49;;;;;;;10.23;6.53;;;;;;;-143.21;80.48;71977.00;5068292;28;20193;-78
2023/06/04 06:18:16;;;;;;;8.45;6.15;;;;;;;-143.21;80.04;71971.06;5068887;28;20196;-78
2023/06/04 06:20:43;;;;;;;7.28;6.13;;;;;;;-143.21;79.69;71961.13;5069086;28;20217;-77
2023/06/04 06:23:10;;;;;;;10.18;6.85;;;;;;;-143.21;79.45;71959.16;5067808;28;20271;-78
2023/06/04 06:25:40;;;;;;;8.95;6.57;;;;;;;-143.21;79.32;71955.19;5067336;28;20205;-77
2023/06/04 06:28:08;;;;;;;7.97;6.05;;;;;;;-143.21;79.00;71949.25;5066513;28;20233;-77
2023/06/04 06:30:38;;;;;;;10.73;6.93;;;;;;;-143.21;79.29;71943.28;5066639;28;20275;-78
2023/06/04 06:33:04;;;;;;;7.68;6.55;;;;;;;-143.21;79.08;71935.34;5065427;28;20225;-78
2023/06/04 06:35:31;;;;;;;10.55;6.20;;;;;;;-143.21;78.90;71939.31;5066491;28;20274;-77
2023/06/04 06:38:01;;;;;;;9.18;6.22;;;;;;;-143.21;78.64;71939.31;5067277;28;20220;-77
2023/06/04 06:40:30;;;;;;;13.68;5.68;;;;;;;-143.21;77.56;71935.34;5066848;28;20220;-76
2023/06/04 06:42:58;;;;;;;12.23;6.60;;;;;;;-143.21;77.81;71921.47;5066759;28;20193;-75
2023/06/04 06:45:26;;;;;;;11.02;6.22;;;;;;;-143.21;77.64;71925.44;5066374;28;20201;-76
2023/06/04 06:47:53;;;;;;;11.43;6.35;;;;;;;-143.21;77.31;71907.59;5065821;28;20680;-77
2023/06/04 06:50:20;;;;;;;10.27;6.57;;;;;;;-143.21;77.61;71907.59;5067938;28;20202;-78
2023/06/04 06:52:47;;;;;;;8.30;6.40;;;;;;;-143.21;77.56;71893.72;5067863;28;20262;-79
2023/06/04 06:55:13;;;;;;;11.05;6.57;;;;;;;-143.21;77.24;71879.84;5066110;28;20194;-79
2023/06/04 06:57:41;;;;;;;11.43;6.40;;;;;;;-143.21;76.35;71887.78;5068004;28;20205;-79
2023/06/04 07:00:09;;;;;;;13.00;5.65;;;;;;;-143.21;75.35;71877.84;5067039;28;20201;-79
2023/06/04 07:02:37;;;;;;;16.90;6.72;;;;;;;-143.21;75.93;71885.78;5067593;28;20209;-79
2023/06/04 07:05:04;;;;;;;9.63;5.97;;;;;;;-143.21;75.04;71871.91;5067595;28;20205;-79
2023/06/04 07:07:31;;;;;;;8.77;6.28;;;;;;;-143.21;75.31;71883.81;5067042;28;20699;-79
2023/06/04 07:09:58;;;;;;;10.85;6.20;;;;;;;-143.21;76.17;71885.78;5067734;28;20679;-79
2023/06/04 07:12:24;;;;;;;9.98;6.10;;;;;;;-143.21;75.14;71879.84;5067898;28;20209;-79
2023/06/04 07:14:51;;;;;;;8.82;6.40;;;;;;;-143.21;75.09;71875.88;5067553;28;20213;-79
2023/06/04 07:17:18;;;;;;;11.38;6.30;;;;;;;-143.21;75.53;71869.91;5067804;28;20194;-79
2023/06/04 07:19:46;;;;;;;9.30;5.93;;;;;;;-143.21;76.05;71854.06;5068464;28;20197;-79
2023/06/04 07:22:15;;;;;;;7.72;6.00;;;;;;;-143.21;75.20;71840.19;5065495;28;20193;-79
2023/06/04 07:24:42;;;;;;;10.30;6.47;;;;;;;-143.21;75.24;71832.25;5067942;28;20197;-79
2023/06/04 07:27:13;;;;;;;12.13;6.43;;;;;;;-143.21;74.59;71826.28;5067646;28;20205;-79
2023/06/04 07:29:40;;;;;;;9.43;6.15;;;;;;;-143.21;73.54;71820.34;5067638;28;20255;-79
2023/06/04 07:32:07;;;;;;;9.23;6.30;;;;;;;-143.21;73.89;71804.47;5067652;28;20205;-79
2023/06/04 07:34:34;;;;;;;10.73;6.88;;;;;;;-143.21;73.05;71792.59;5065401;28;20837;-79
2023/06/04 07:37:02;;;;;;;13.95;7.50;;;;;;;-143.21;73.35;71778.72;5057585;28;20571;-85
2023/06/04 07:39:29;;;;;;;13.77;7.28;;;;;;;-143.21;72.83;71776.72;5069712;28;20292;-87
2023/06/04 07:41:56;;;;;;;11.60;7.30;;;;;;;-143.21;73.01;71762.84;5069763;28;20255;-84
2023/06/04 07:44:23;;;;;;;15.32;7.75;;;;;;;-143.21;73.17;71762.84;5069641;28;20663;-85
2023/06/04 07:46:50;;;;;;;13.43;7.30;;;;;;;-143.21;72.69;71758.88;5062910;28;20201;-79
2023/06/04 07:49:17;;;;;;;11.95;7.00;;;;;;;-143.21;72.48;71752.94;5052263;28;20197;-79
2023/06/04 07:51:43;;;;;;;13.40;7.32;;;;;;;-143.21;71.96;71745.00;5065873;28;20221;-79
2023/06/04 07:54:13;;;;;;;16.20;7.30;;;;;;;-143.21;71.76;71743.00;5065761;28;20214;-80
2023/06/04 07:56:43;;;;;;;18.60;7.80;;;;;;;-143.21;72.44;71766.81;5065907;28;20201;-79
2023/06/04 07:59:10;;;;;;;13.90;7.30;;;;;;;-143.21;72.46;71752.94;5065277;28;20206;-81
2023/06/04 08:01:37;;;;;;;12.82;7.40;;;;;;;-143.21;72.05;71754.91;5066493;28;20205;-78
2023/06/04 08:04:06;;;;;;;14.00;7.85;;;;;;;-143.21;72.83;71745.00;5066484;28;20202;-80
2023/06/04 08:06:35;;;;;;;11.85;7.68;;;;;;;-143.21;73.59;71733.09;5066951;28;20233;-80
2023/06/04 08:09:02;;;;;;;9.43;7.65;;;;;;;-143.21;73.07;71723.19;5067512;28;20575;-79
2023/06/04 08:11:30;;;;;;;13.60;7.97;;;;;;;-143.21;71.97;71731.13;5068742;28;20201;-79
2023/06/04 08:13:58;;;;;;;14.43;8.35;;;;;;;-143.21;71.29;71731.13;5070726;28;20213;-80
2023/06/04 08:16:25;;;;;;;16.40;8.40;;;;;;;-143.21;70.76;71713.28;5071397;28;20201;-79
2023/06/04 08:18:52;;;;;;;16.17;8.77;;;;;;;-143.21;70.15;71701.38;5071343;28;20198;-79
2023/06/04 08:21:26;;;;;;;11.60;8.77;;;;;;;-143.21;70.01;71691.47;5070607;28;20208;-77
2023/06/04 08:23:53;;;;;;;15.00;8.88;;;;;;;-143.21;70.09;71687.50;5068874;28;20656;-78
2023/06/04 08:26:20;;;;;;;14.27;9.23;;;;;;;-143.21;70.87;71689.47;5070035;28;20198;-79
2023/06/04 08:28:52;;;;;;;19.95;9.90;;;;;;;-143.21;70.37;71685.50;5071000;28;20666;-81
2023/06/04 08:31:19;;;;;;;13.98;10.40;;;;;;;-143.21;68.76;71689.47;5068189;28;20197;-81
2023/06/04 08:33:47;;;;;;;16.38;9.77;;;;;;;-143.21;69.71;71689.47;5070180;28;20218;-79
2023/06/04 08:36:13;;;;;;;18.40;9.40;;;;;;;-143.21;69.68;71681.56;5072192;28;20197;-81
2023/06/04 08:38:40;;;;;;;15.05;9.20;;;;;;;-143.21;69.26;71677.59;5072172;28;20198;-79
2023/06/04 08:41:16;;;;;;;16.08;8.45;;;;;;;-143.21;69.16;71683.53;5071206;28;20586;-76
2023/06/04 08:43:44;;;;;;;13.32;8.93;;;;;;;-143.21;68.90;71675.59;5070573;28;20185;-77
2023/06/04 08:46:13;;;;;;;13.02;9.02;;;;;;;-143.21;68.27;71677.59;5071637;28;20197;-82
2023/06/04 08:48:40;;;;;;;12.63;9.45;;;;;;;-143.21;68.57;71667.66;5069931;28;20204;-77
2023/06/04 08:51:09;;;;;;;14.27;9.48;;;;;;;-143.21;68.56;71663.72;5070118;28;20224;-76
2023/06/04 08:53:36;;;;;;;13.35;9.15;;;;;;;-143.21;68.58;71661.72;5070225;28;20205;-77
2023/06/04 08:56:03;;;;;;;14.55;9.75;;;;;;;-143.21;68.66;71649.81;5069698;28;20225;-78
2023/06/04 08:58:33;;;;;;;18.50;9.98;;;;;;;-143.21;68.58;71645.88;5069433;28;20193;-77
2023/06/04 09:01:01;;;;;;;21.15;8.65;;;;;;;-143.21;68.97;71645.88;5070241;28;20202;-76
2023/06/04 09:03:30;;;;;;;13.75;8.50;;;;;;;-143.21;68.79;71653.78;5070990;28;20656;-77
2023/06/04 09:05:59;;;;;;;16.00;8.73;;;;;;;-143.21;69.03;71655.78;5068773;28;20228;-79
2023/06/04 09:08:27;;;;;;;15.45;9.10;;;;;;;-143.21;68.16;71661.72;5071149;28;20194;-79
2023/06/04 09:10:55;;;;;;;12.82;9.32;;;;;;;-143.21;68.80;71677.59;5068975;28;20201;-78
2023/06/04 09:13:23;;;;;;;16.73;9.38;;;;;;;-143.21;68.26;71685.50;5070363;28;20550;-79
2023/06/04 09:15:59;;;;;;;14.90;9.40;;;;;;;-143.21;68.45;71703.34;5070786;28;20213;-79
2023/06/04 09:18:27;;;;;;;14.20;9.73;;;;;;;-143.21;68.11;71705.34;5071408;28;20598;-83
2023/06/04 09:21:03;;;;;;;13.15;9.10;;;;;;;-143.21;68.13;71699.41;5072017;28;20221;-83
2023/06/04 09:23:31;;;;;;;13.95;8.77;;;;;;;-143.21;68.64;71707.31;5071530;28;20228;-81
2023/06/04 09:26:08;;;;;;;12.63;8.60;;;;;;;-143.21;68.97;71685.50;5071629;28;20708;-82
2023/06/04 09:28:36;;;;;;;14.82;9.02;;;;;;;-143.21;69.20;71669.66;5071332;28;20211;-82
2023/06/04 09:31:06;;;;;;;16.20;8.73;;;;;;;-143.21;67.32;71651.81;5071954;28;20252;-83
2023/06/04 09:33:43;;;;;;;17.27;9.57;;;;;;;-143.21;66.43;71643.88;5071320;28;20190;-83
2023/06/04 09:36:11;;;;;;;11.55;8.95;;;;;;;-143.21;65.61;71635.94;5071129;28;20193;-81
2023/06/04 09:38:39;;;;;;;18.45;9.95;;;;;;;-143.21;64.83;71631.97;5071137;28;20204;-80
2023/06/04 09:41:11;;;;;;;13.85;9.52;;;;;;;-143.21;65.67;71628.00;5069206;28;20212;-80
2023/06/04 09:43:38;;;;;;;13.40;9.52;;;;;;;-143.21;65.86;71620.09;5068647;28;20202;-80
2023/06/04 09:46:12;;;;;;;16.52;10.45;;;;;;;-143.21;64.30;71602.25;5067853;28;20592;-80
2023/06/04 09:48:40;;;;;;;16.30;10.73;;;;;;;-143.21;64.06;71592.31;5068417;28;20205;-81
2023/06/04 09:51:12;;;;;;;15.57;10.98;;;;;;;-143.21;63.99;71574.47;5069434;28;20205;-80
2023/06/04 09:53:40;;;;;;;20.85;10.55;;;;;;;-143.21;63.54;71558.63;5069111;28;20197;-79
2023/06/04 09:56:07;;;;;;;16.02;10.93;;;;;;;-143.21;63.57;71530.88;5069667;28;20684;-80
2023/06/04 09:58:36;;;;;;;16.83;10.07;;;;;;;-143.21;63.46;71524.91;5069827;28;20205;-80
2023/06/04 10:01:05;;;;;;;15.65;11.40;;;;;;;-143.21;62.76;71513.03;5069895;28;20189;-80
2023/06/04 10:03:33;;;;;;;15.80;10.73;;;;;;;-143.21;61.74;71507.06;5069819;28;20201;-80
2023/06/04 10:06:03;;;;;;;18.90;9.93;;;;;;;-143.21;62.62;71493.19;5069891;28;20213;-84
2023/06/04 10:08:36;;;;;;;12.68;9.80;;;;;;;-143.21;63.44;71485.25;5070344;28;20209;-84
2023/06/04 10:11:05;;;;;;;13.93;10.15;;;;;;;-143.21;63.33;71475.34;5070512;28;20220;-82
2023/06/04 10:13:39;;;;;;;15.80;9.63;;;;;;;-143.21;62.56;71455.53;5071322;28;20198;-83
2023/06/04 10:16:10;;;;;;;13.82;9.68;;;;;;;-143.21;61.34;71435.69;5070272;28;20751;-82
2023/06/04 10:18:37;;;;;;;17.98;9.45;;;;;;;-143.21;61.89;71415.88;5071200;28;20201;-82
2023/06/04 10:21:06;;;;;;;12.43;9.27;;;;;;;-143.21;61.41;71394.06;5070839;28;20197;-82
2023/06/04 10:23:34;;;;;;;13.75;10.00;;;;;;;-143.21;59.79;71392.06;5071226;28;20190;-84
2023/06/04 10:26:02;;;;;;;14.07;9.38;;;;;;;-143.21;58.78;71376.22;5070639;28;20208;-82
2023/06/04 10:28:29;;;;;;;11.68;8.85;;;;;;;-143.21;58.85;71380.19;5070569;28;20198;-83
2023/06/04 10:30:56;;;;;;;12.25;8.45;;;;;;;-143.21;58.13;71402.00;5070414;28;20729;-84
2023/06/04 10:33:24;;;;;;;12.43;9.05;;;;;;;-143.21;59.73;71421.81;5070562;28;20205;-84
2023/06/04 10:35:51;;;;;;;12.77;8.65;;;;;;;-143.21;60.59;71427.75;5070824;28;20320;-84
2023/06/04 10:38:20;;;;;;;12.23;8.32;;;;;;;-143.21;59.39;71421.81;5070090;28;20201;-84
2023/06/04 10:40:48;;;;;;;14.23;9.02;;;;;;;-143.21;60.53;71423.78;5069839;28;20193;-85
2023/06/04 10:43:17;;;;;;;13.98;8.23;;;;;;;-143.21;60.50;71431.72;5070880;28;20201;-84
2023/06/04 10:45:44;;;;;;;13.05;8.50;;;;;;;-143.21;59.93;71447.59;5069265;28;20255;-83
2023/06/04 10:48:11;;;;;;;10.70;8.18;;;;;;;-143.21;59.87;71457.50;5071635;28;20286;-83
2023/06/04 10:50:50;;;;;;;13.75;8.45;;;;;;;-143.21;60.13;71459.47;5070909;28;20224;-84
2023/06/04 10:53:18;;;;;;;12.90;8.40;;;;;;;-143.21;59.89;71467.41;5067183;28;20197;-84
2023/06/04 10:55:46;;;;;;;15.70;8.43;;;;;;;-143.21;60.05;71473.38;5067780;28;20217;-84
2023/06/04 10:58:17;;;;;;;13.88;8.70;;;;;;;-143.21;60.57;71475.34;5067040;28;20193;-85
2023/06/04 11:00:48;;;;;;;13.77;8.45;;;;;;;-143.21;60.52;71491.22;5066274;28;20285;-82
2023/06/04 11:03:15;;;;;;;14.38;8.68;;;;;;;-143.21;60.16;71505.09;5065965;28;20190;-84
2023/06/04 11:05:43;;;;;;;11.68;8.82;;;;;;;-143.21;60.97;71507.06;5069678;28;20201;-84
2023/06/04 11:08:13;;;;;;;14.30;8.90;;;;;;;-143.21;60.71;71515.00;5069394;28;20683;-85
2023/06/04 11:10:41;;;;;;;13.88;9.10;;;;;;;-143.21;61.57;71526.91;5069424;28;20233;-88
2023/06/04 11:13:07;;;;;;;11.43;8.85;;;;;;;-143.21;60.76;71530.88;5070374;28;20198;-87
2023/06/04 11:15:43;;;;;;;14.35;9.25;;;;;;;-143.21;61.46;71542.75;5069920;28;21222;-85
2023/06/04 11:18:15;;;;;;;12.30;9.05;;;;;;;-143.21;62.65;71548.72;5071917;28;20763;-85